This is the latest recevied weather packets stored in our database for station/object GW7204. If no packets are shown the sender has not sent any weather packets the latest 10 day(s).
| Time | Temp. | Humidity | Pressure | Rain* | Wind** | Luminosity | Snow |
|---|---|---|---|---|---|---|---|
| 1778024727 | 20° C | 60% | 1008.1 hPa | 0 mm | - | - | - |
| 1778019674 | 21.67° C | 54% | 1008.1 hPa | 0 mm | - | - | - |
| 1778018261 | 22.22° C | 53% | 1008.4 hPa | 0 mm | - | - | - |
| 1778017909 | 22.22° C | 53% | 1008.4 hPa | 0 mm | - | - | - |
| 1778017181 | 22.78° C | 52% | 1008.1 hPa | 0 mm | - | - | - |
| 1778016462 | 22.22° C | 53% | 1007.7 hPa | 0 mm | - | - | - |
| 1778011780 | 22.22° C | 53% | 1008.4 hPa | 0 mm | - | - | - |
| 1778008172 | 22.78° C | 52% | 1009.1 hPa | 0 mm | - | - | - |
| 1778007816 | 22.78° C | 52% | 1009.1 hPa | 0 mm | - | - | - |
| 1778003485 | 22.22° C | 53% | 1009.4 hPa | 0 mm | - | - | - |
| 1778003125 | 22.22° C | 55% | 1009.8 hPa | 0 mm | - | - | - |
| 1778000979 | 22.22° C | 53% | 1009.8 hPa | 0 mm | - | - | - |
| 1778000608 | 22.22° C | 55% | 1009.8 hPa | 0 mm | - | - | - |
| 1777999512 | 22.22° C | 53% | 1009.4 hPa | 0 mm | - | - | - |
| 1777998439 | 22.22° C | 53% | 1009.4 hPa | 0 mm | - | - | - |
| 1777998108 | 22.22° C | 55% | 1009.1 hPa | 0 mm | - | - | - |
| 1777997735 | 22.22° C | 54% | 1009.4 hPa | 0 mm | - | - | - |
| 1777993411 | 20.56° C | 61% | 1008.8 hPa | 0 mm | - | - | - |
| 1777992708 | 20.56° C | 61% | 1009.4 hPa | 0 mm | - | - | - |
| 1777991952 | 20° C | 61% | 1009.4 hPa | 0 mm | - | - | - |
| 1777990542 | 19.44° C | 63% | 1009.1 hPa | 0 mm | - | - | - |
| 1777988373 | 18.89° C | 63% | 1009.1 hPa | 0 mm | - | - | - |
| 1777987651 | 18.89° C | 65% | 1009.1 hPa | 0 mm | - | - | - |
| 1777981166 | 16.11° C | 72% | 1008.8 hPa | 0 mm | - | - | - |
| 1777980095 | 15.56° C | 73% | 1008.8 hPa | 0 mm | - | - | - |
* Rain since midnight (hover to see other rain measurements)
** Current wind speed in m/s (hover to see current wind gust speed)